FTTD

Moundou Airport

Chad
METAR FTTD 151500Z 32008KT 9999 FEW040 32/24 Q1012
Observed Flight Rules
Aug-15 @ 15:00 UTC (7 hours ago) Visual Flight Rules
Wind Visibility Clouds
320° at 8 knots 10,000+ meters
  • Few at 4,000' AGL
Temperatures Readings
Current 32°C / 90°F
Dewpoint 24°C / 75°F
Humidity 63%
Altimeter 29.88" Hg
Pressure 1012 hPa
Elevation 422
METAR FTTD 151500Z 32008KT 9999 FEW040 32/24 Q1012
Observed Flight Rules
Aug-15 @ 15:00 UTC
(7 hours ago)
VFR
Wind Visibility
320° at 8 knots 10,000+ meters
Clouds
  • Few at 4,000' AGL
Temperature Dewpoint
32°C / 90°F 24°C / 75°F
Humidity Altimeter Pressure
63% 29.88" Hg 1012 hPa